Time;durP1;ratioP1;P1;durP2;ratioP2;P2;SDS_P1;SDS_P2;PMS_P1;PMS_P2;Temp;Humidity;BMP_temperature;BMP_pressure;BME280_temperature;BME280_humidity;BME280_pressure;Samples;Min_cycle;Max_cycle;Signal;HPM_P1;HPM_P2
2021/06/17 00:00:24;;;;;;;5.87;4.87;;;21.40;99.90;;;;;;5014307;28;20218;-79
2021/06/17 00:02:50;;;;;;;7.40;5.43;;;21.30;99.90;;;;;;5014578;28;20222;-79
2021/06/17 00:05:18;;;;;;;4.73;4.30;;;21.30;99.90;;;;;;5014911;28;20568;-80
2021/06/17 00:07:45;;;;;;;5.27;4.67;;;21.30;99.90;;;;;;5014989;28;20792;-81
2021/06/17 00:10:16;;;;;;;5.87;5.33;;;21.30;99.90;;;;;;5014816;28;20472;-79
2021/06/17 00:12:42;;;;;;;4.83;4.40;;;21.30;99.90;;;;;;5015336;28;20402;-79
2021/06/17 00:15:10;;;;;;;5.87;4.83;;;21.30;99.90;;;;;;5018112;28;20457;-80
2021/06/17 00:17:36;;;;;;;7.60;5.17;;;21.30;99.90;;;;;;5014222;28;20240;-79
2021/06/17 00:20:03;;;;;;;5.50;5.00;;;21.30;99.90;;;;;;5013293;28;20509;-79
2021/06/17 00:22:29;;;;;;;5.20;4.70;;;21.30;99.90;;;;;;5012968;28;20217;-79
2021/06/17 00:24:54;;;;;;;8.03;4.90;;;21.30;99.90;;;;;;5014160;28;20433;-79
2021/06/17 00:27:21;;;;;;;5.67;5.13;;;21.30;99.90;;;;;;5013171;28;20659;-79
2021/06/17 00:29:47;;;;;;;5.07;4.67;;;21.20;99.90;;;;;;4996815;28;20236;-79
2021/06/17 00:32:12;;;;;;;6.17;4.87;;;21.10;99.90;;;;;;5014859;28;20410;-79
2021/06/17 00:34:38;;;;;;;5.00;4.60;;;21.10;99.90;;;;;;5013624;28;20233;-79
2021/06/17 00:37:04;;;;;;;7.23;4.40;;;21.00;99.90;;;;;;4996737;28;20660;-79
2021/06/17 00:39:29;;;;;;;5.50;3.93;;;20.90;99.90;;;;;;4996601;28;20194;-79
2021/06/17 00:41:55;;;;;;;6.73;3.90;;;20.90;99.90;;;;;;5014160;28;20237;-79
2021/06/17 00:44:20;;;;;;;4.77;4.37;;;20.90;99.90;;;;;;5013984;28;20249;-79
2021/06/17 00:46:46;;;;;;;6.27;4.67;;;20.90;99.90;;;;;;5013955;28;20178;-79
2021/06/17 00:49:12;;;;;;;4.87;4.40;;;20.90;99.90;;;;;;5013250;28;20226;-80
2021/06/17 00:51:37;;;;;;;4.37;3.97;;;20.80;99.90;;;;;;5014246;28;20178;-78
2021/06/17 00:54:03;;;;;;;4.73;4.23;;;20.80;99.90;;;;;;4996143;28;20198;-79
2021/06/17 00:56:30;;;;;;;4.67;4.30;;;20.80;99.90;;;;;;5014102;28;20179;-78
2021/06/17 00:58:57;;;;;;;10.00;4.97;;;20.80;99.90;;;;;;5014034;28;20179;-78
2021/06/17 01:01:23;;;;;;;6.10;4.47;;;20.80;99.90;;;;;;5012555;28;20950;-79
2021/06/17 01:03:49;;;;;;;6.00;4.60;;;20.70;99.90;;;;;;5012197;28;20481;-78
2021/06/17 01:06:15;;;;;;;4.20;3.80;;;20.50;99.90;;;;;;5013741;28;20418;-78
2021/06/17 01:09:01;;;;;;;4.23;3.87;;;20.50;99.90;;;;;;5012342;28;20461;-78
2021/06/17 01:11:52;;;;;;;5.27;4.30;;;20.50;99.90;;;;;;5013700;28;20159;-78
2021/06/17 01:14:32;;;;;;;4.90;4.50;;;20.40;99.90;;;;;;5012934;28;20423;-79
2021/06/17 01:17:03;;;;;;;10.63;4.70;;;20.40;99.90;;;;;;5013587;28;20410;-79
2021/06/17 01:19:32;;;;;;;5.50;4.67;;;20.30;99.90;;;;;;5013645;28;20398;-79
2021/06/17 01:21:57;;;;;;;6.20;5.47;;;20.20;99.90;;;;;;5013479;28;20438;-79
2021/06/17 01:24:50;;;;;;;5.93;4.57;;;20.20;99.90;;;;;;5013135;28;20472;-78
2021/06/17 01:27:32;;;;;;;7.63;5.83;;;20.10;99.90;;;;;;5013759;28;20502;-78
2021/06/17 01:30:08;;;;;;;5.50;4.80;;;20.10;99.90;;;;;;5012237;28;20465;-79
2021/06/17 01:32:35;;;;;;;4.90;4.40;;;20.00;99.90;;;;;;5013524;28;20492;-79
2021/06/17 01:35:04;;;;;;;5.00;4.50;;;20.00;99.90;;;;;;5011741;28;20453;-79
2021/06/17 01:37:31;;;;;;;6.67;5.07;;;20.00;99.90;;;;;;5013395;28;20413;-79
2021/06/17 01:39:58;;;;;;;5.20;4.70;;;19.90;99.90;;;;;;5013425;28;20475;-80
2021/06/17 01:42:25;;;;;;;8.93;5.50;;;19.80;99.90;;;;;;5013677;28;20402;-79
2021/06/17 01:44:59;;;;;;;5.43;4.33;;;19.80;99.90;;;;;;4995720;28;20446;-79
2021/06/17 01:47:27;;;;;;;5.10;4.53;;;19.70;99.90;;;;;;5013631;28;20410;-79
2021/06/17 01:49:54;;;;;;;6.00;4.80;;;19.70;99.90;;;;;;5013366;28;20472;-79
2021/06/17 01:52:23;;;;;;;8.23;6.00;;;19.70;99.90;;;;;;5013462;28;20413;-78
2021/06/17 01:54:50;;;;;;;5.90;5.23;;;19.60;99.90;;;;;;5012989;28;20444;-79
2021/06/17 01:57:18;;;;;;;6.43;5.40;;;19.60;99.90;;;;;;5013225;28;20410;-79
2021/06/17 01:59:47;;;;;;;4.87;4.47;;;19.60;99.90;;;;;;5013361;28;20425;-79
2021/06/17 02:02:14;;;;;;;6.90;4.87;;;19.60;99.90;;;;;;5013350;28;20508;-78
2021/06/17 02:04:41;;;;;;;5.47;4.90;;;19.50;99.90;;;;;;5012658;28;20438;-80
2021/06/17 02:07:08;;;;;;;6.07;5.03;;;19.50;99.90;;;;;;5013102;28;20409;-79
2021/06/17 02:09:34;;;;;;;7.20;5.30;;;19.40;99.90;;;;;;5012992;28;20464;-78
2021/06/17 02:11:59;;;;;;;5.33;4.83;;;19.40;99.90;;;;;;5013238;28;20406;-79
2021/06/17 02:14:27;;;;;;;6.37;5.63;;;19.30;99.90;;;;;;4995157;28;20203;-78
2021/06/17 02:16:56;;;;;;;7.33;6.10;;;19.10;99.90;;;;;;5013119;28;20266;-79
2021/06/17 02:19:24;;;;;;;6.50;5.90;;;19.00;99.90;;;;;;5012988;28;20504;-78
2021/06/17 02:21:53;;;;;;;7.60;5.90;;;19.00;99.90;;;;;;5012076;28;20407;-79
2021/06/17 02:24:21;;;;;;;6.47;5.80;;;19.00;99.90;;;;;;5014845;28;20453;-78
2021/06/17 02:26:51;;;;;;;10.33;6.27;;;19.00;99.90;;;;;;5015520;28;20424;-78
2021/06/17 02:29:18;;;;;;;11.53;7.70;;;19.00;99.90;;;;;;5015170;28;20453;-80
2021/06/17 02:31:47;;;;;;;6.97;6.13;;;19.00;99.90;;;;;;5016475;28;20758;-78
2021/06/17 02:34:14;;;;;;;7.70;6.50;;;19.00;99.90;;;;;;5014824;28;20457;-79
2021/06/17 02:36:41;;;;;;;7.40;6.80;;;18.90;99.90;;;;;;5016668;28;20500;-80
2021/06/17 02:39:08;;;;;;;7.43;6.50;;;18.90;99.90;;;;;;5016853;28;20425;-79
2021/06/17 02:41:37;;;;;;;8.50;6.50;;;18.80;99.90;;;;;;5016374;28;20464;-78
2021/06/17 02:44:04;;;;;;;9.03;6.90;;;18.70;99.90;;;;;;5015985;28;20437;-78
2021/06/17 02:46:29;;;;;;;7.50;6.80;;;18.70;99.90;;;;;;5014849;28;20425;-79
2021/06/17 02:48:56;;;;;;;7.53;6.83;;;18.80;99.90;;;;;;5016226;28;20432;-78
2021/06/17 02:51:22;;;;;;;7.20;6.50;;;18.80;99.90;;;;;;5016098;28;20182;-78
2021/06/17 02:53:48;;;;;;;7.67;6.80;;;18.80;99.90;;;;;;5015622;28;20573;-79
2021/06/17 02:56:23;;;;;;;10.50;6.90;;;18.80;99.90;;;;;;5016346;28;20425;-79
2021/06/17 02:59:11;;;;;;;8.20;7.40;;;18.80;99.90;;;;;;5016062;28;20381;-79
2021/06/17 03:01:47;;;;;;;8.10;7.30;;;18.80;99.90;;;;;;5016104;28;20401;-80
2021/06/17 03:04:22;;;;;;;9.07;8.17;;;18.80;99.90;;;;;;5015770;28;20404;-79
2021/06/17 03:06:51;;;;;;;8.90;8.00;;;18.70;99.90;;;;;;5015944;28;20397;-79
2021/06/17 03:09:22;;;;;;;9.17;8.27;;;18.80;99.90;;;;;;5015689;28;20872;-79
2021/06/17 03:11:51;;;;;;;9.97;8.57;;;18.80;99.90;;;;;;5015767;28;20497;-80
2021/06/17 03:14:24;;;;;;;9.53;8.30;;;18.80;99.90;;;;;;5015323;28;20476;-78
2021/06/17 03:16:53;;;;;;;10.90;8.97;;;18.80;99.90;;;;;;5015703;28;20406;-79
2021/06/17 03:19:19;;;;;;;9.50;8.60;;;18.80;99.90;;;;;;5015467;28;20433;-78
2021/06/17 03:21:56;;;;;;;10.90;8.83;;;18.70;99.90;;;;;;5015577;28;20418;-81
2021/06/17 03:24:25;;;;;;;7.90;7.20;;;18.70;99.90;;;;;;5015433;28;20449;-79
2021/06/17 03:26:52;;;;;;;11.77;8.60;;;18.70;99.90;;;;;;5016317;28;20504;-78
2021/06/17 03:29:20;;;;;;;13.13;8.07;;;18.60;99.90;;;;;;5020748;28;20453;-78
2021/06/17 03:31:45;;;;;;;10.67;8.60;;;18.60;99.90;;;;;;5018704;28;20406;-80
2021/06/17 03:34:12;;;;;;;12.17;8.93;;;18.60;99.90;;;;;;5021759;28;20477;-78
2021/06/17 03:36:39;;;;;;;9.00;8.10;;;18.60;99.90;;;;;;5015273;28;20600;-78
2021/06/17 03:39:06;;;;;;;9.80;8.70;;;18.60;99.90;;;;;;5014295;28;20512;-79
2021/06/17 03:41:32;;;;;;;8.63;7.23;;;18.50;99.90;;;;;;5014039;28;20426;-78
2021/06/17 03:44:00;;;;;;;8.67;7.77;;;18.50;99.90;;;;;;5014724;28;20931;-78
2021/06/17 03:46:26;;;;;;;12.23;8.40;;;18.50;99.90;;;;;;5015133;28;20426;-78
2021/06/17 03:48:54;;;;;;;9.90;8.90;;;18.50;99.90;;;;;;5015108;28;20453;-78
2021/06/17 03:51:20;;;;;;;13.50;8.27;;;18.40;99.90;;;;;;5015203;28;20413;-78
2021/06/17 03:53:46;;;;;;;9.07;8.20;;;18.40;99.90;;;;;;5014822;28;20441;-78
2021/06/17 03:56:13;;;;;;;9.03;8.23;;;18.50;99.90;;;;;;5013671;28;20827;-78
2021/06/17 03:58:42;;;;;;;9.90;8.67;;;18.50;99.90;;;;;;5015058;28;20784;-78
2021/06/17 04:01:09;;;;;;;8.43;7.63;;;18.50;99.90;;;;;;5014978;28;20422;-79
2021/06/17 04:03:35;;;;;;;8.87;8.00;;;18.50;99.90;;;;;;5014518;28;20488;-78
2021/06/17 04:06:02;;;;;;;9.63;8.63;;;18.60;99.90;;;;;;5014808;28;20810;-78
2021/06/17 04:08:31;;;;;;;9.43;8.50;;;18.60;99.90;;;;;;5014605;28;20392;-78
2021/06/17 04:11:01;;;;;;;10.37;9.30;;;18.60;99.90;;;;;;5014846;28;20406;-78
2021/06/17 04:13:32;;;;;;;9.40;7.83;;;18.60;99.90;;;;;;5014227;28;20418;-78
2021/06/17 04:15:59;;;;;;;10.80;8.20;;;18.70;99.90;;;;;;5014641;28;20416;-79
2021/06/17 04:18:25;;;;;;;9.80;8.90;;;18.70;99.90;;;;;;5014420;28;20497;-78
2021/06/17 04:20:54;;;;;;;9.90;8.53;;;18.80;99.90;;;;;;5014390;28;20453;-78
2021/06/17 04:23:21;;;;;;;10.33;8.10;;;18.80;99.90;;;;;;5014098;28;20385;-78
2021/06/17 04:25:48;;;;;;;9.60;8.07;;;18.90;99.90;;;;;;5014295;28;20789;-78
2021/06/17 04:28:14;;;;;;;11.13;8.17;;;18.90;99.90;;;;;;5014222;28;20437;-78
2021/06/17 04:30:41;;;;;;;9.90;7.80;;;18.90;99.90;;;;;;5013937;28;20388;-79
2021/06/17 04:33:10;;;;;;;8.97;7.97;;;19.00;99.90;;;;;;5013890;28;20410;-78
2021/06/17 04:35:39;;;;;;;9.07;8.17;;;19.10;99.90;;;;;;5012726;28;20450;-78
2021/06/17 04:38:08;;;;;;;9.03;8.00;;;19.20;99.90;;;;;;5014444;28;20906;-80
2021/06/17 04:40:35;;;;;;;9.03;8.23;;;19.30;99.90;;;;;;5014072;28;20414;-79
2021/06/17 04:43:01;;;;;;;8.37;7.57;;;19.30;99.90;;;;;;5014063;28;20421;-78
2021/06/17 04:45:29;;;;;;;8.43;7.57;;;19.40;99.90;;;;;;5012660;28;20441;-78
2021/06/17 04:47:58;;;;;;;7.90;7.10;;;19.50;99.90;;;;;;5012769;28;20480;-79
2021/06/17 04:50:24;;;;;;;10.43;6.80;;;19.50;99.90;;;;;;5013851;28;20461;-79
2021/06/17 04:52:50;;;;;;;7.60;6.90;;;19.70;99.90;;;;;;5013600;28;20812;-78
2021/06/17 04:55:16;;;;;;;7.17;6.47;;;19.80;99.90;;;;;;5013778;28;20437;-79
2021/06/17 04:57:41;;;;;;;10.50;6.43;;;19.90;99.90;;;;;;5013785;28;20187;-78
2021/06/17 05:00:08;;;;;;;7.30;6.60;;;20.00;99.90;;;;;;5013711;28;20907;-78
2021/06/17 05:02:33;;;;;;;9.43;7.10;;;20.20;99.90;;;;;;5012658;28;20175;-78
2021/06/17 05:04:59;;;;;;;6.53;5.93;;;20.30;99.90;;;;;;5012160;28;20442;-79
2021/06/17 05:07:39;;;;;;;11.37;6.93;;;20.40;99.90;;;;;;5013783;28;20523;-78
2021/06/17 05:12:51;;;;;;;8.23;6.40;;;20.60;99.90;;;;;;5013718;28;20436;-78
2021/06/17 05:15:16;;;;;;;6.57;5.97;;;20.80;99.90;;;;;;5013482;28;20802;-78
2021/06/17 05:17:42;;;;;;;7.00;6.10;;;20.90;99.90;;;;;;5013616;28;20282;-77
2021/06/17 05:20:10;;;;;;;6.70;6.10;;;21.00;99.90;;;;;;5012330;28;20277;-77
2021/06/17 05:22:35;;;;;;;9.13;6.20;;;21.10;99.90;;;;;;5013445;28;20464;-77
2021/06/17 05:25:02;;;;;;;10.00;6.30;;;21.30;99.90;;;;;;5013034;28;20434;-77
2021/06/17 05:27:27;;;;;;;6.93;5.83;;;21.40;99.90;;;;;;5013352;28;20190;-77
2021/06/17 05:29:53;;;;;;;7.50;5.50;;;21.50;99.90;;;;;;5012199;28;20457;-77
2021/06/17 05:32:19;;;;;;;6.90;6.20;;;21.80;99.90;;;;;;5013397;28;20258;-77
2021/06/17 05:34:46;;;;;;;7.20;5.63;;;22.00;99.90;;;;;;5012807;28;20576;-77
2021/06/17 05:37:11;;;;;;;7.20;5.10;;;22.20;99.90;;;;;;5013391;28;20397;-77
2021/06/17 05:39:37;;;;;;;7.83;5.70;;;22.40;99.90;;;;;;5012217;28;20936;-77
2021/06/17 05:42:04;;;;;;;9.60;5.83;;;22.70;99.90;;;;;;5013113;28;20196;-77
2021/06/17 05:44:29;;;;;;;7.93;5.53;;;22.90;99.90;;;;;;5012942;28;20725;-76
2021/06/17 05:46:55;;;;;;;9.13;4.90;;;23.10;99.90;;;;;;5012253;28;20410;-77
2021/06/17 05:49:23;;;;;;;6.03;5.30;;;23.30;99.90;;;;;;5012855;28;20210;-77
2021/06/17 05:51:49;;;;;;;8.10;5.80;;;23.30;99.90;;;;;;5011967;28;20175;-76
2021/06/17 05:54:14;;;;;;;7.07;5.00;;;23.40;99.90;;;;;;5013208;28;20426;-77
2021/06/17 05:56:40;;;;;;;6.63;5.57;;;23.50;99.90;;;;;;5012181;28;20250;-78
2021/06/17 05:59:06;;;;;;;8.47;5.77;;;23.50;99.90;;;;;;5016435;28;20210;-79
2021/06/17 06:01:31;;;;;;;7.73;5.50;;;23.60;99.90;;;;;;5016117;28;20215;-78
2021/06/17 06:03:57;;;;;;;5.93;4.90;;;23.70;99.90;;;;;;5016990;28;20261;-78
2021/06/17 06:06:23;;;;;;;5.90;4.60;;;23.70;99.90;;;;;;5017062;28;20258;-78
2021/06/17 06:08:49;;;;;;;5.23;4.50;;;23.80;99.90;;;;;;5016796;28;20206;-79
2021/06/17 06:11:14;;;;;;;5.97;4.70;;;23.90;99.90;;;;;;4999313;28;20182;-79
2021/06/17 06:13:40;;;;;;;6.00;5.50;;;23.90;99.90;;;;;;5015324;28;20429;-79
2021/06/17 06:16:06;;;;;;;9.77;4.90;;;24.10;99.90;;;;;;5015826;28;20678;-81
2021/06/17 06:18:31;;;;;;;5.40;4.50;;;24.30;99.90;;;;;;5016750;28;20666;-77
2021/06/17 06:20:58;;;;;;;8.17;5.00;;;24.40;99.90;;;;;;5015376;28;20175;-78
2021/06/17 06:23:28;;;;;;;5.80;4.47;;;24.40;99.90;;;;;;5016174;28;20186;-79
2021/06/17 06:25:54;;;;;;;5.13;4.57;;;24.30;99.90;;;;;;5016563;28;20544;-79
2021/06/17 06:28:21;;;;;;;7.83;4.70;;;24.40;99.90;;;;;;5015357;28;20501;-79
2021/06/17 06:30:49;;;;;;;10.27;4.70;;;24.40;99.90;;;;;;5016530;28;20820;-79
2021/06/17 06:33:16;;;;;;;8.40;5.17;;;24.40;99.90;;;;;;5014868;28;20417;-79
2021/06/17 06:35:42;;;;;;;5.67;5.07;;;24.50;99.90;;;;;;5016436;28;20828;-79
2021/06/17 06:38:08;;;;;;;5.50;4.93;;;24.50;99.90;;;;;;5015204;28;20418;-79
2021/06/17 06:40:34;;;;;;;11.20;5.20;;;24.50;99.90;;;;;;5016287;28;20703;-79
2021/06/17 06:43:00;;;;;;;7.00;5.40;;;24.60;99.90;;;;;;5014697;28;20524;-79
2021/06/17 06:45:26;;;;;;;7.13;5.30;;;24.70;99.90;;;;;;5016312;28;20199;-78
2021/06/17 06:47:52;;;;;;;10.07;5.60;;;24.70;99.90;;;;;;5015032;28;20195;-78
2021/06/17 06:50:19;;;;;;;6.20;4.60;;;24.80;99.90;;;;;;5016089;28;20972;-78
2021/06/17 06:52:45;;;;;;;10.53;5.33;;;24.90;99.90;;;;;;5015793;28;20418;-79
2021/06/17 06:55:13;;;;;;;5.47;4.50;;;25.00;99.90;;;;;;5015929;28;20472;-79
2021/06/17 06:57:39;;;;;;;5.60;4.73;;;25.10;99.90;;;;;;5015929;28;20818;-79
2021/06/17 07:00:11;;;;;;;5.70;5.20;;;25.20;99.90;;;;;;5015997;28;20425;-79
2021/06/17 07:02:36;;;;;;;7.77;5.17;;;25.20;99.90;;;;;;5015653;28;20421;-78
2021/06/17 07:05:04;;;;;;;6.73;4.60;;;25.50;99.90;;;;;;5014123;28;20440;-79
2021/06/17 07:07:30;;;;;;;9.97;4.43;;;25.60;99.90;;;;;;5015856;28;20232;-78
2021/06/17 07:09:55;;;;;;;11.70;4.93;;;25.50;99.90;;;;;;5015206;28;20806;-79
2021/06/17 07:12:21;;;;;;;9.40;4.63;;;25.70;99.90;;;;;;5015712;28;20178;-78
2021/06/17 07:14:48;;;;;;;5.40;4.80;;;25.80;99.90;;;;;;5015285;28;20619;-79
2021/06/17 07:17:13;;;;;;;7.70;4.60;;;26.00;99.90;;;;;;5015645;28;20257;-79
2021/06/17 07:19:39;;;;;;;6.37;5.10;;;26.00;99.90;;;;;;5015380;28;20504;-79
2021/06/17 07:22:05;;;;;;;8.33;4.87;;;26.20;99.90;;;;;;5014319;28;20430;-80
2021/06/17 07:24:30;;;;;;;7.47;4.67;;;26.20;99.90;;;;;;5013869;28;20203;-78
2021/06/17 07:26:56;;;;;;;6.57;4.73;;;26.30;99.90;;;;;;4997848;28;20277;-79
2021/06/17 07:29:22;;;;;;;7.50;5.07;;;26.30;99.90;;;;;;5015391;28;20214;-78
2021/06/17 07:31:48;;;;;;;6.20;4.30;;;26.50;99.90;;;;;;5015183;28;20421;-76
2021/06/17 07:34:13;;;;;;;8.50;5.17;;;26.50;99.90;;;;;;5014742;28;20206;-76
2021/06/17 07:36:40;;;;;;;7.27;5.13;;;26.70;99.90;;;;;;5015253;28;20640;-76
2021/06/17 07:39:07;;;;;;;6.67;4.67;;;26.80;99.90;;;;;;5015204;28;20182;-78
2021/06/17 07:41:33;;;;;;;9.27;4.67;;;27.00;99.90;;;;;;5015185;28;20422;-78
2021/06/17 07:44:00;;;;;;;7.67;5.07;;;27.10;99.90;;;;;;5014656;28;20472;-78
2021/06/17 07:46:26;;;;;;;7.20;4.63;;;27.20;99.90;;;;;;5015042;28;20179;-78
2021/06/17 07:48:51;;;;;;;5.53;4.27;;;27.30;99.90;;;;;;5015080;28;21029;-78
2021/06/17 07:51:18;;;;;;;7.50;4.70;;;27.40;99.90;;;;;;5015134;28;20197;-77
2021/06/17 07:53:43;;;;;;;5.63;4.27;;;27.60;99.90;;;;;;5013288;28;20257;-76
2021/06/17 07:56:09;;;;;;;8.00;4.53;;;27.60;99.90;;;;;;5014302;28;20425;-75
2021/06/17 07:58:35;;;;;;;10.00;5.00;;;27.60;99.90;;;;;;5014965;28;20190;-75
2021/06/17 08:01:01;;;;;;;8.40;4.50;;;27.60;99.90;;;;;;5014684;28;20183;-76
2021/06/17 08:03:30;;;;;;;6.83;5.07;;;27.70;99.90;;;;;;5014316;28;20198;-75
2021/06/17 08:05:56;;;;;;;8.07;4.70;;;28.00;99.90;;;;;;5013586;28;20476;-76
2021/06/17 08:08:22;;;;;;;7.13;4.23;;;28.10;99.90;;;;;;5014756;28;20414;-76
2021/06/17 08:10:48;;;;;;;5.60;3.80;;;28.30;99.90;;;;;;5014610;28;20203;-75
2021/06/17 08:13:14;;;;;;;6.23;4.17;;;28.50;99.90;;;;;;5014325;28;20780;-76
2021/06/17 08:15:40;;;;;;;5.23;4.27;;;28.50;99.90;;;;;;5014314;28;20508;-76
2021/06/17 08:18:06;;;;;;;7.17;4.17;;;28.40;99.90;;;;;;5014594;28;20227;-76
2021/06/17 08:20:32;;;;;;;8.33;3.80;;;28.50;99.90;;;;;;5013767;28;20186;-76
2021/06/17 08:22:57;;;;;;;15.80;4.50;;;28.60;99.90;;;;;;5014150;28;20460;-76
2021/06/17 08:25:23;;;;;;;3.90;3.60;;;28.90;99.90;;;;;;5014293;28;20675;-76
2021/06/17 08:27:49;;;;;;;4.03;3.40;;;29.00;99.90;;;;;;5014356;28;20221;-76
2021/06/17 08:30:18;;;;;;;3.53;3.23;;;29.10;99.90;;;;;;5012795;28;20642;-77
2021/06/17 08:32:44;;;;;;;5.57;3.73;;;29.10;99.90;;;;;;5013883;28;20194;-78
2021/06/17 08:35:12;;;;;;;4.43;4.03;;;29.30;99.90;;;;;;5013923;28;20481;-76
2021/06/17 08:37:38;;;;;;;3.70;3.40;;;29.50;99.90;;;;;;5013019;28;20505;-76
2021/06/17 08:40:05;;;;;;;3.97;3.60;;;29.70;99.90;;;;;;5014020;28;20544;-76
2021/06/17 08:42:31;;;;;;;3.60;3.30;;;29.50;99.90;;;;;;5013932;28;20315;-77
2021/06/17 08:44:59;;;;;;;3.83;3.50;;;29.80;99.90;;;;;;5013717;28;20441;-76
2021/06/17 08:47:25;;;;;;;3.90;3.37;;;29.90;99.90;;;;;;5013964;28;20429;-76
2021/06/17 08:49:53;;;;;;;5.90;3.30;;;30.00;99.90;;;;;;5014305;28;20706;-76
2021/06/17 08:52:20;;;;;;;4.23;3.20;;;30.00;99.90;;;;;;5013830;28;20405;-77
2021/06/17 08:54:47;;;;;;;4.10;3.70;;;30.20;99.90;;;;;;5013398;28;20436;-76
2021/06/17 08:57:16;;;;;;;4.33;3.27;;;30.50;99.90;;;;;;5013755;28;20433;-77
2021/06/17 08:59:44;;;;;;;4.20;3.43;;;30.60;99.90;;;;;;5012679;28;20422;-77
2021/06/17 09:02:10;;;;;;;6.13;3.23;;;30.70;99.90;;;;;;5013698;28;20497;-76
2021/06/17 09:04:36;;;;;;;7.03;4.00;;;30.90;99.90;;;;;;5013150;28;20473;-77
2021/06/17 09:07:10;;;;;;;4.20;3.20;;;31.20;99.90;;;;;;5013782;28;20459;-78
2021/06/17 09:09:42;;;;;;;4.30;3.57;;;31.40;99.90;;;;;;5013727;28;20213;-79
2021/06/17 09:12:12;;;;;;;5.73;3.40;;;31.10;99.90;;;;;;5013896;28;20402;-78
2021/06/17 09:14:39;;;;;;;10.63;3.80;;;31.30;99.90;;;;;;5011873;28;20568;-78
2021/06/17 09:17:08;;;;;;;3.40;3.07;;;31.80;99.90;;;;;;5012477;28;20441;-79
2021/06/17 09:19:48;;;;;;;3.50;3.20;;;32.10;99.90;;;;;;5013781;28;20836;-78
2021/06/17 09:22:19;;;;;;;3.70;2.90;;;31.30;99.90;;;;;;5013765;28;20906;-78
2021/06/17 09:24:47;;;;;;;4.50;2.93;;;30.90;99.90;;;;;;5013253;28;20429;-78
2021/06/17 09:27:34;;;;;;;9.20;5.43;;;31.50;99.90;;;;;;5012356;28;20426;-78
2021/06/17 09:30:12;;;;;;;8.23;3.40;;;32.00;99.90;;;;;;5015071;28;20533;-74
2021/06/17 09:32:46;;;;;;;4.13;3.60;;;32.00;99.90;;;;;;5018245;28;20413;-77
2021/06/17 09:35:42;;;;;;;7.93;3.97;;;32.30;99.90;;;;;;5017523;28;20876;-79
2021/06/17 09:38:07;;;;;;;5.30;3.77;;;32.60;99.90;;;;;;5016407;28;20435;-79
2021/06/17 09:40:38;;;;;;;5.97;3.30;;;32.40;99.90;;;;;;5020706;28;20417;-79
2021/06/17 09:43:19;;;;;;;3.50;3.20;;;32.50;99.90;;;;;;5017206;28;20171;-78
2021/06/17 09:45:50;;;;;;;3.20;2.90;;;32.90;99.90;;;;;;5017556;28;20409;-79
2021/06/17 09:48:30;;;;;;;4.10;3.80;;;33.40;99.90;;;;;;5017625;28;20417;-78
2021/06/17 09:50:55;;;;;;;3.03;2.83;;;33.60;99.90;;;;;;5017287;28;20420;-79
2021/06/17 09:53:26;;;;;;;5.43;3.10;;;34.10;99.90;;;;;;5016940;28;20502;-78
2021/06/17 09:55:52;;;;;;;4.07;3.57;;;33.70;99.90;;;;;;5017191;28;20593;-78
2021/06/17 09:58:38;;;;;;;3.80;3.47;;;33.40;99.90;;;;;;5017160;28;20429;-77
2021/06/17 10:01:05;;;;;;;3.87;3.50;;;33.50;99.90;;;;;;5018176;28;20241;-78
2021/06/17 10:03:32;;;;;;;3.20;3.00;;;33.70;99.90;;;;;;5016969;28;20456;-79
2021/06/17 10:05:58;;;;;;;6.93;3.90;;;34.00;99.90;;;;;;5019972;28;20401;-78
2021/06/17 10:08:24;;;;;;;7.70;3.00;;;34.20;99.90;;;;;;5017120;28;20409;-78
2021/06/17 10:10:50;;;;;;;3.73;3.33;;;34.20;99.90;;;;;;5016854;28;20493;-78
2021/06/17 10:13:17;;;;;;;4.70;3.10;;;34.10;99.90;;;;;;5015335;28;20453;-79
2021/06/17 10:15:43;;;;;;;4.00;3.20;;;34.00;99.90;;;;;;5016821;28;20550;-77
2021/06/17 10:18:09;;;;;;;3.90;2.87;;;33.90;99.90;;;;;;5016787;28;20501;-78
2021/06/17 10:20:36;;;;;;;7.50;3.50;;;34.20;99.90;;;;;;5016709;28;20666;-78
2021/06/17 10:23:02;;;;;;;3.33;3.03;;;34.00;99.90;;;;;;5016243;28;20187;-79
2021/06/17 10:25:33;;;;;;;3.73;3.33;;;34.20;99.90;;;;;;5016564;28;20528;-79
2021/06/17 10:28:01;;;;;;;6.00;3.50;;;34.70;99.90;;;;;;5016623;28;20171;-77
2021/06/17 10:30:42;;;;;;;5.43;3.90;;;35.10;99.90;;;;;;5016538;28;20989;-77
2021/06/17 10:33:26;;;;;;;4.83;3.73;;;35.80;99.90;;;;;;5015987;28;20417;-77
2021/06/17 10:35:52;;;;;;;5.17;4.50;;;36.40;99.90;;;;;;5016338;28;20429;-76
2021/06/17 10:38:18;;;;;;;5.37;3.63;;;36.70;99.90;;;;;;5016301;28;20421;-77
2021/06/17 10:40:44;;;;;;;4.50;4.20;;;36.80;99.90;;;;;;5016272;28;20786;-77
2021/06/17 10:43:20;;;;;;;4.20;3.60;;;36.50;99.90;;;;;;5015253;28;20185;-77
2021/06/17 10:45:49;;;;;;;4.07;3.60;;;36.30;99.90;;;;;;5016043;28;20949;-76
2021/06/17 10:48:24;;;;;;;4.20;3.67;;;36.40;99.90;;;;;;5016216;28;20501;-78
2021/06/17 10:51:06;;;;;;;3.90;3.50;;;36.80;99.90;;;;;;5016265;28;20472;-77
2021/06/17 10:53:35;;;;;;;3.73;3.43;;;36.90;99.90;;;;;;5015952;28;20418;-77
2021/06/17 10:56:10;;;;;;;4.43;3.70;;;37.30;99.90;;;;;;5016069;28;20448;-76
2021/06/17 10:58:42;;;;;;;9.17;3.90;;;37.40;99.90;;;;;;5016281;28;20543;-78
2021/06/17 11:01:33;;;;;;;5.00;3.90;;;37.30;99.90;;;;;;5016031;28;20410;-77
2021/06/17 11:04:02;;;;;;;5.83;3.83;;;37.10;98.70;;;;;;5015631;28;20430;-77
2021/06/17 11:06:53;;;;;;;4.60;3.40;;;37.50;98.80;;;;;;5015898;28;20398;-76
2021/06/17 11:09:40;;;;;;;4.40;4.00;;;38.00;98.80;;;;;;5015666;28;20480;-77
2021/06/17 11:12:17;;;;;;;3.70;3.40;;;38.50;93.90;;;;;;5012211;28;20480;-78
2021/06/17 11:14:54;;;;;;;4.80;3.30;;;38.40;96.30;;;;;;5015300;28;20434;-78
2021/06/17 11:17:32;;;;;;;5.40;2.93;;;39.20;95.00;;;;;;5015796;28;20421;-78
2021/06/17 11:20:20;;;;;;;4.13;3.83;;;39.00;93.10;;;;;;5014614;28;20429;-78
2021/06/17 11:22:48;;;;;;;4.00;2.73;;;38.60;93.40;;;;;;5015865;28;20416;-79
2021/06/17 11:25:19;;;;;;;4.57;2.93;;;38.50;93.50;;;;;;5015386;28;20881;-77
2021/06/17 11:27:58;;;;;;;4.07;3.67;;;38.90;93.30;;;;;;5015134;28;20898;-77
2021/06/17 11:30:42;;;;;;;5.10;3.40;;;39.30;92.90;;;;;;5014023;28;20472;-77
2021/06/17 11:33:19;;;;;;;8.67;3.27;;;39.40;91.50;;;;;;5015115;28;20421;-78
2021/06/17 11:35:54;;;;;;;3.50;3.20;;;39.30;91.00;;;;;;5015133;28;20425;-78
2021/06/17 11:38:25;;;;;;;3.90;3.60;;;39.10;91.50;;;;;;5015364;28;20426;-77
2021/06/17 11:40:52;;;;;;;5.13;3.47;;;39.60;89.80;;;;;;5005521;28;21226;-79
2021/06/17 11:43:22;;;;;;;4.43;4.03;;;40.20;88.50;;;;;;4993966;28;20433;-77
2021/06/17 11:45:47;;;;;;;10.00;3.30;;;40.20;88.80;;;;;;4993712;28;20597;-79
2021/06/17 11:48:13;;;;;;;3.93;3.30;;;40.70;86.60;;;;;;4992305;28;20950;-77
2021/06/17 11:50:50;;;;;;;5.10;4.13;;;40.50;84.90;;;;;;4993820;28;20211;-78
2021/06/17 11:53:17;;;;;;;5.53;3.27;;;39.70;85.10;;;;;;4993790;28;20659;-78
2021/06/17 11:55:51;;;;;;;5.47;3.70;;;39.80;85.90;;;;;;4991646;28;21146;-75
2021/06/17 11:58:18;;;;;;;4.40;3.57;;;40.70;79.20;;;;;;4994084;28;20505;-78
2021/06/17 12:00:45;;;;;;;4.03;3.60;;;40.30;83.60;;;;;;4993217;28;20427;-79
2021/06/17 12:03:20;;;;;;;4.83;3.80;;;40.70;81.90;;;;;;4993009;28;20525;-76
2021/06/17 12:05:47;;;;;;;6.90;3.40;;;40.80;80.00;;;;;;4993436;28;20438;-79
2021/06/17 12:08:13;;;;;;;4.00;3.60;;;41.20;81.90;;;;;;4993666;28;20430;-78
2021/06/17 12:10:41;;;;;;;3.77;3.57;;;41.20;77.90;;;;;;4991441;28;20568;-77
2021/06/17 12:13:09;;;;;;;10.43;3.30;;;41.60;76.10;;;;;;4992072;28;20187;-77
2021/06/17 12:15:37;;;;;;;4.47;4.07;;;41.90;79.80;;;;;;4992993;28;20434;-77
2021/06/17 12:18:04;;;;;;;4.17;3.80;;;42.00;72.90;;;;;;4992756;28;20411;-76
2021/06/17 12:20:33;;;;;;;4.93;4.00;;;42.10;74.40;;;;;;4991797;28;20453;-76
2021/06/17 12:22:59;;;;;;;4.00;3.70;;;42.00;73.90;;;;;;4993151;28;20481;-78
2021/06/17 12:25:30;;;;;;;6.10;4.00;;;42.40;70.10;;;;;;4991705;28;20442;-78
2021/06/17 12:27:59;;;;;;;4.20;3.80;;;42.50;72.20;;;;;;4993335;28;20188;-78
2021/06/17 12:30:39;;;;;;;4.27;3.97;;;42.60;70.20;;;;;;4992845;28;20462;-78
2021/06/17 12:33:09;;;;;;;7.93;3.93;;;42.40;73.00;;;;;;4992372;28;20415;-78
2021/06/17 12:35:53;;;;;;;5.37;4.13;;;43.00;72.50;;;;;;4992465;28;20442;-77
2021/06/17 12:38:36;;;;;;;4.73;4.33;;;43.30;67.80;;;;;;4992655;28;20931;-79
2021/06/17 12:41:28;;;;;;;8.83;4.03;;;43.20;66.50;;;;;;4992523;28;20469;-78
2021/06/17 12:43:56;;;;;;;8.03;4.63;;;43.10;67.60;;;;;;5006389;28;20461;-79
2021/06/17 12:46:37;;;;;;;6.87;4.57;;;43.50;68.20;;;;;;5011351;28;20438;-78
2021/06/17 12:52:07;;;;;;;6.60;5.23;;;41.90;70.00;;;;;;5012286;28;20522;-76
2021/06/17 12:54:37;;;;;;;6.47;4.60;;;41.40;72.90;;;;;;5011198;28;20941;-76
2021/06/17 12:57:05;;;;;;;11.23;4.60;;;40.30;70.00;;;;;;5010671;28;20468;-78
2021/06/17 12:59:51;;;;;;;4.83;4.40;;;39.40;74.60;;;;;;5012097;28;20421;-77